createdAt,value
2023-05-17T00:02:01.167Z,0.60
2023-05-17T00:04:29.766Z,0.60
2023-05-17T00:06:58.194Z,0.80
2023-05-17T00:09:28.055Z,0.60
2023-05-17T00:11:56.520Z,0.50
2023-05-17T00:14:25.237Z,0.60
2023-05-17T00:16:53.884Z,0.70
2023-05-17T00:19:23.477Z,0.60
2023-05-17T00:21:51.946Z,0.53
2023-05-17T00:24:20.346Z,0.90
2023-05-17T00:26:50.168Z,0.73
2023-05-17T00:29:18.638Z,0.67
2023-05-17T00:31:47.047Z,0.50
2023-05-17T00:34:15.552Z,0.70
2023-05-17T00:36:44.009Z,0.60
2023-05-17T00:39:13.668Z,0.80
2023-05-17T00:41:42.076Z,0.73
2023-05-17T00:44:13.127Z,0.80
2023-05-17T00:46:42.000Z,0.60
2023-05-17T00:49:10.510Z,0.77
2023-05-17T00:51:39.481Z,0.53
2023-05-17T00:54:08.315Z,0.57
2023-05-17T00:56:37.556Z,0.60
2023-05-17T00:59:08.028Z,0.50
2023-05-17T01:01:42.690Z,0.60
2023-05-17T01:04:12.262Z,0.77
2023-05-17T01:06:42.053Z,0.60
2023-05-17T01:09:11.572Z,0.70
2023-05-17T01:11:52.264Z,0.67
2023-05-17T01:14:35.006Z,0.50
2023-05-17T01:17:08.384Z,1.43
2023-05-17T01:19:53.736Z,0.70
2023-05-17T01:22:36.450Z,0.77
2023-05-17T01:25:28.480Z,0.60
2023-05-17T01:28:03.533Z,0.60
2023-05-17T01:30:34.072Z,0.50
2023-05-17T01:33:04.944Z,0.83
2023-05-17T01:35:33.459Z,0.70
2023-05-17T01:38:01.837Z,0.77
2023-05-17T01:40:31.863Z,0.63
2023-05-17T01:43:11.405Z,0.60
2023-05-17T01:45:45.592Z,0.50
2023-05-17T01:48:22.843Z,0.80
2023-05-17T01:50:58.496Z,0.70
2023-05-17T01:53:32.228Z,0.80
2023-05-17T01:56:06.080Z,0.60
2023-05-17T01:58:42.745Z,0.80
2023-05-17T02:01:12.566Z,0.70
2023-05-17T02:03:41.174Z,0.80
2023-05-17T02:06:09.876Z,0.67
2023-05-17T02:08:38.396Z,0.70
2023-05-17T02:11:07.016Z,0.67
2023-05-17T02:13:36.856Z,0.90
2023-05-17T02:16:06.631Z,0.60
2023-05-17T02:18:36.046Z,0.60
2023-05-17T02:21:04.903Z,0.77
2023-05-17T02:23:33.418Z,0.60
2023-05-17T02:26:01.814Z,0.67
2023-05-17T02:28:30.208Z,0.63
2023-05-17T02:31:00.135Z,0.60
2023-05-17T02:33:28.824Z,0.70
2023-05-17T02:35:58.167Z,0.80
2023-05-17T02:38:26.573Z,0.47
2023-05-17T02:40:55.423Z,0.63
2023-05-17T02:43:24.210Z,1.07
2023-05-17T02:45:52.660Z,0.80
2023-05-17T02:48:22.575Z,0.70
2023-05-17T02:50:51.296Z,0.60
2023-05-17T02:53:19.946Z,0.70
2023-05-17T02:55:48.809Z,0.67
2023-05-17T02:58:18.362Z,0.80
2023-05-17T03:00:47.417Z,0.77
2023-05-17T03:03:17.113Z,0.60
2023-05-17T03:05:47.142Z,0.57
2023-05-17T03:08:15.727Z,0.70
2023-05-17T03:10:44.140Z,1.17
2023-05-17T03:13:13.021Z,0.50
2023-05-17T03:15:41.976Z,0.53
2023-05-17T03:18:10.564Z,0.50
2023-05-17T03:20:41.120Z,0.50
2023-05-17T03:23:11.116Z,0.90
2023-05-17T03:25:50.090Z,0.57
2023-05-17T03:28:18.824Z,0.73
2023-05-17T03:30:47.637Z,0.50
2023-05-17T03:33:18.102Z,0.53
2023-05-17T03:35:47.175Z,0.70
2023-05-17T03:38:17.136Z,0.70
2023-05-17T03:40:45.819Z,0.57
2023-05-17T03:43:14.237Z,0.80
2023-05-17T03:45:42.832Z,0.53
2023-05-17T03:48:11.297Z,0.90
2023-05-17T03:50:41.158Z,1.43
2023-05-17T03:53:11.223Z,0.60
2023-05-17T03:55:41.806Z,0.80
2023-05-17T03:58:10.245Z,0.70
2023-05-17T04:00:38.741Z,0.80
2023-05-17T04:03:14.050Z,0.80
2023-05-17T04:05:42.753Z,0.60
2023-05-17T04:08:11.162Z,0.70
2023-05-17T04:10:42.554Z,0.87
2023-05-17T04:13:11.337Z,0.90
2023-05-17T04:15:40.626Z,0.90
2023-05-17T04:18:09.963Z,0.77
2023-05-17T04:20:38.476Z,0.67
2023-05-17T04:23:06.945Z,0.60
2023-05-17T04:25:37.014Z,0.50
2023-05-17T04:28:07.898Z,0.60
2023-05-17T04:30:36.901Z,0.80
2023-05-17T04:33:06.169Z,0.70
2023-05-17T04:35:34.741Z,0.67
2023-05-17T04:38:03.515Z,0.60
2023-05-17T04:40:32.322Z,0.50
2023-05-17T04:43:00.935Z,0.83
2023-05-17T04:45:33.530Z,0.90
2023-05-17T04:48:02.794Z,0.60
2023-05-17T04:50:32.269Z,0.60
2023-05-17T04:53:00.730Z,1.00
2023-05-17T04:55:31.249Z,0.60
2023-05-17T04:58:00.285Z,0.60
2023-05-17T05:00:28.877Z,0.70
2023-05-17T05:03:06.094Z,0.50
2023-05-17T05:05:35.929Z,0.70
2023-05-17T05:08:06.953Z,0.70
2023-05-17T05:10:35.501Z,0.70
2023-05-17T05:13:04.061Z,0.70
2023-05-17T05:15:33.678Z,0.67
2023-05-17T05:18:02.210Z,0.80
2023-05-17T05:20:33.712Z,0.73
2023-05-17T05:23:06.175Z,0.60
2023-05-17T05:25:36.125Z,0.50
2023-05-17T05:28:04.558Z,0.50
2023-05-17T05:30:34.084Z,0.70
2023-05-17T05:33:02.591Z,0.60
2023-05-17T05:35:32.559Z,0.87
2023-05-17T05:38:01.283Z,0.60
2023-05-17T05:40:30.106Z,1.10
2023-05-17T05:42:58.908Z,0.63
2023-05-17T05:45:27.319Z,0.63
2023-05-17T05:47:59.981Z,0.60
2023-05-17T05:50:29.177Z,0.50
2023-05-17T05:53:17.218Z,0.43
2023-05-17T05:55:50.777Z,0.70
2023-05-17T05:58:19.860Z,0.90
2023-05-17T06:00:49.166Z,0.43
2023-05-17T06:03:17.791Z,0.90
2023-05-17T06:05:46.331Z,0.67
2023-05-17T06:08:16.303Z,0.80
2023-05-17T06:10:47.102Z,0.50
2023-05-17T06:13:15.799Z,0.60
2023-05-17T06:15:44.203Z,0.60
2023-05-17T06:18:12.764Z,0.60
2023-05-17T06:20:41.201Z,0.67
2023-05-17T06:23:09.638Z,0.70
2023-05-17T06:25:39.683Z,0.80
2023-05-17T06:28:09.396Z,0.80
2023-05-17T06:30:37.854Z,0.77
2023-05-17T06:33:06.676Z,1.37
2023-05-17T06:35:51.738Z,0.63
2023-05-17T06:38:23.724Z,0.70
2023-05-17T06:40:55.398Z,0.60
2023-05-17T06:43:24.138Z,0.70
2023-05-17T06:45:52.749Z,0.70
2023-05-17T06:48:21.290Z,1.47
2023-05-17T06:50:49.796Z,0.90
2023-05-17T06:53:18.290Z,0.60
2023-05-17T06:55:46.680Z,0.60
2023-05-17T06:58:16.597Z,0.90
2023-05-17T07:00:45.049Z,0.63
2023-05-17T07:03:13.832Z,0.68
2023-05-17T07:05:42.339Z,1.00
2023-05-17T07:08:11.716Z,1.38
2023-05-17T07:10:40.188Z,0.60
2023-05-17T07:13:08.731Z,0.60
2023-05-17T07:15:39.236Z,0.88
2023-05-17T07:18:07.795Z,0.55
2023-05-17T07:20:36.266Z,0.70
2023-05-17T07:23:04.693Z,0.70
2023-05-17T07:25:33.145Z,0.75
2023-05-17T07:28:01.553Z,0.60
2023-05-17T07:30:30.145Z,0.60
2023-05-17T07:33:00.080Z,0.90
2023-05-17T07:35:28.771Z,0.75
2023-05-17T07:37:57.451Z,0.68
2023-05-17T07:40:25.990Z,0.75
2023-05-17T07:42:54.479Z,0.60
2023-05-17T07:45:22.981Z,0.60
2023-05-17T07:47:51.596Z,0.63
2023-05-17T07:50:21.534Z,0.57
2023-05-17T07:52:50.056Z,0.55
2023-05-17T07:55:19.918Z,0.63
2023-05-17T07:57:48.685Z,0.50
2023-05-17T08:00:19.445Z,0.50
2023-05-17T08:02:47.944Z,0.50
2023-05-17T08:05:16.569Z,0.73
2023-05-17T08:07:46.780Z,0.40
2023-05-17T08:10:15.250Z,0.70
2023-05-17T08:12:43.752Z,0.60
2023-05-17T08:15:12.379Z,0.67
2023-05-17T08:17:41.152Z,0.40
2023-05-17T08:20:11.080Z,0.40
2023-05-17T08:22:39.642Z,0.60
2023-05-17T08:25:10.143Z,0.67
2023-05-17T08:27:39.815Z,0.50
2023-05-17T08:30:12.094Z,0.63
2023-05-17T08:32:45.279Z,0.33
2023-05-17T08:35:13.942Z,0.57
2023-05-17T08:37:43.105Z,0.70
2023-05-17T08:40:14.999Z,0.50
2023-05-17T08:42:44.604Z,0.40
2023-05-17T08:45:14.553Z,0.63
2023-05-17T08:47:44.903Z,0.40
2023-05-17T08:50:14.469Z,0.60
2023-05-17T08:52:47.432Z,0.50
2023-05-17T08:55:18.465Z,0.50
2023-05-17T08:57:47.845Z,0.40
2023-05-17T09:00:21.199Z,0.70
2023-05-17T09:02:52.527Z,0.97
2023-05-17T09:05:21.498Z,0.57
2023-05-17T09:07:50.885Z,0.53
2023-05-17T09:10:22.088Z,0.40
2023-05-17T09:12:50.875Z,0.43
2023-05-17T09:15:21.056Z,0.40
2023-05-17T09:17:53.808Z,0.40
2023-05-17T09:20:26.123Z,0.50
2023-05-17T09:22:54.753Z,0.37
2023-05-17T09:25:25.841Z,0.47
2023-05-17T09:27:54.443Z,0.50
2023-05-17T09:30:29.511Z,0.43
2023-05-17T09:32:59.196Z,0.50
2023-05-17T09:35:30.973Z,0.60
2023-05-17T09:38:09.985Z,0.40
2023-05-17T09:40:44.332Z,0.70
2023-05-17T09:43:13.880Z,0.73
2023-05-17T09:45:42.428Z,0.53
2023-05-17T09:48:15.509Z,0.80
2023-05-17T09:50:48.033Z,0.40
2023-05-17T09:53:27.238Z,0.53
2023-05-17T09:55:58.706Z,0.53
2023-05-17T09:58:29.008Z,0.80
2023-05-17T10:01:02.053Z,0.53
2023-05-17T10:03:33.499Z,0.40
2023-05-17T10:06:04.057Z,0.70
2023-05-17T10:08:33.979Z,0.50
2023-05-17T10:11:09.637Z,0.50
2023-05-17T10:13:45.574Z,0.50
2023-05-17T10:16:14.817Z,0.50
2023-05-17T10:18:43.718Z,0.60
2023-05-17T10:21:12.932Z,0.57
2023-05-17T10:23:44.350Z,0.50
2023-05-17T10:26:14.435Z,0.50
2023-05-17T10:28:44.178Z,0.80
2023-05-17T10:31:13.929Z,0.50
2023-05-17T10:33:44.584Z,0.70
2023-05-17T10:36:18.585Z,0.50
2023-05-17T10:38:47.487Z,0.50
2023-05-17T10:41:19.623Z,0.90
2023-05-17T10:43:49.988Z,0.60
2023-05-17T10:46:21.929Z,0.60
2023-05-17T10:48:52.233Z,0.60
2023-05-17T10:51:25.742Z,0.77
2023-05-17T10:54:09.140Z,0.67
2023-05-17T10:56:42.261Z,0.83
2023-05-17T10:59:22.068Z,0.50
2023-05-17T11:01:56.171Z,0.73
2023-05-17T11:04:26.419Z,0.70
2023-05-17T11:06:57.363Z,1.00
2023-05-17T11:09:26.325Z,0.67
2023-05-17T11:12:10.149Z,0.77
2023-05-17T11:14:48.241Z,0.60
2023-05-17T11:17:18.966Z,0.60
2023-05-17T11:20:11.600Z,0.73
2023-05-17T11:22:42.949Z,0.63
2023-05-17T11:25:13.369Z,0.70
2023-05-17T11:27:47.470Z,0.90
2023-05-17T11:30:20.919Z,0.70
2023-05-17T11:32:51.673Z,0.50
2023-05-17T11:35:24.872Z,0.53
2023-05-17T11:37:54.779Z,0.73
2023-05-17T11:40:28.386Z,0.60
2023-05-17T11:43:19.834Z,1.00
2023-05-17T11:45:52.799Z,0.60
2023-05-17T11:48:23.592Z,0.60
2023-05-17T11:50:55.364Z,0.70
2023-05-17T11:53:24.345Z,0.60
2023-05-17T11:55:53.952Z,0.83
2023-05-17T11:58:27.220Z,1.20
2023-05-17T12:00:57.843Z,0.80
2023-05-17T12:03:27.860Z,0.80
2023-05-17T12:06:04.887Z,0.47
2023-05-17T12:08:34.504Z,0.60
2023-05-17T12:11:03.513Z,0.60
2023-05-17T12:13:34.554Z,0.50
2023-05-17T12:16:06.092Z,0.60
2023-05-17T12:18:38.925Z,0.80
2023-05-17T12:21:08.461Z,0.67
2023-05-17T12:23:39.785Z,0.70
2023-05-17T12:26:10.350Z,0.50
2023-05-17T12:28:42.334Z,0.77
2023-05-17T12:31:13.785Z,0.50
2023-05-17T12:33:44.201Z,0.70
2023-05-17T12:36:14.157Z,0.80
2023-05-17T12:38:43.762Z,0.70
2023-05-17T12:41:13.642Z,0.63
2023-05-17T12:43:46.258Z,0.60
2023-05-17T12:46:15.720Z,0.50
2023-05-17T12:48:44.640Z,0.60
2023-05-17T12:51:14.488Z,0.77
2023-05-17T12:53:44.533Z,0.70
2023-05-17T12:56:18.155Z,1.00
2023-05-17T12:59:07.629Z,0.70
2023-05-17T13:01:37.326Z,1.03
2023-05-17T13:04:06.398Z,0.73
2023-05-17T13:06:50.288Z,0.67
2023-05-17T13:09:21.232Z,0.60
2023-05-17T13:11:52.934Z,0.70
2023-05-17T13:14:41.170Z,0.90
2023-05-17T13:17:12.581Z,0.70
2023-05-17T13:19:41.178Z,0.73
2023-05-17T13:22:10.027Z,0.60
2023-05-17T13:24:40.213Z,0.70
2023-05-17T13:27:09.599Z,0.60
2023-05-17T13:29:43.210Z,0.60
2023-05-17T13:32:13.898Z,0.50
2023-05-17T13:34:42.645Z,0.53
2023-05-17T13:37:12.695Z,0.60
2023-05-17T13:39:41.912Z,1.30
2023-05-17T13:42:11.170Z,0.70
2023-05-17T13:44:41.936Z,0.97
2023-05-17T13:47:10.470Z,0.90
2023-05-17T13:49:38.921Z,0.80
2023-05-17T13:52:09.077Z,0.90
2023-05-17T13:54:38.330Z,0.60
2023-05-17T13:57:07.340Z,0.60
2023-05-17T13:59:35.832Z,0.80
2023-05-17T14:02:05.695Z,0.60
2023-05-17T14:04:35.138Z,0.67
2023-05-17T14:07:04.636Z,0.70
2023-05-17T14:09:34.605Z,0.80
2023-05-17T14:12:03.175Z,0.70
2023-05-17T14:14:32.122Z,0.60
2023-05-17T14:17:01.621Z,0.70
2023-05-17T14:19:31.895Z,0.50
2023-05-17T14:22:00.555Z,0.80
2023-05-17T14:24:28.929Z,0.80
2023-05-17T14:26:57.953Z,0.83
2023-05-17T14:29:26.360Z,0.73
2023-05-17T14:31:54.906Z,0.87
2023-05-17T14:34:23.480Z,0.73
2023-05-17T14:36:53.494Z,0.63
2023-05-17T14:39:22.112Z,0.80
2023-05-17T14:41:50.453Z,0.80
2023-05-17T14:44:18.887Z,0.70
2023-05-17T14:46:47.295Z,0.40
2023-05-17T14:49:16.102Z,0.67
2023-05-17T14:51:46.098Z,0.63
2023-05-17T14:54:16.851Z,0.60
2023-05-17T14:56:45.605Z,0.70
2023-05-17T14:59:14.300Z,0.80
2023-05-17T15:01:43.763Z,0.80
2023-05-17T15:04:12.644Z,0.63
2023-05-17T15:06:42.305Z,0.63
2023-05-17T15:09:13.486Z,0.70
2023-05-17T15:11:43.365Z,0.57
2023-05-17T15:14:14.050Z,0.70
2023-05-17T15:16:42.597Z,0.67
2023-05-17T15:19:11.112Z,0.60
2023-05-17T15:21:40.719Z,0.60
2023-05-17T15:24:11.094Z,0.60
2023-05-17T15:26:43.200Z,0.50
2023-05-17T15:29:11.810Z,0.70
2023-05-17T15:31:41.169Z,0.60
2023-05-17T15:34:09.812Z,0.80
2023-05-17T15:36:38.486Z,1.30
2023-05-17T15:39:07.089Z,0.67
2023-05-17T15:41:35.910Z,0.50
2023-05-17T15:44:08.129Z,0.50
2023-05-17T15:46:36.716Z,0.80
2023-05-17T15:49:05.162Z,0.67
2023-05-17T15:51:33.711Z,0.60
2023-05-17T15:54:02.170Z,0.60
2023-05-17T15:56:30.703Z,1.00
2023-05-17T15:59:01.039Z,0.80
2023-05-17T16:01:32.997Z,0.70
2023-05-17T16:04:01.583Z,0.70
2023-05-17T16:06:34.940Z,0.97
2023-05-17T16:09:03.859Z,0.80
2023-05-17T16:11:32.446Z,0.70
2023-05-17T16:14:00.884Z,0.50
2023-05-17T16:16:29.229Z,0.90
2023-05-17T16:18:59.207Z,0.60
2023-05-17T16:21:27.786Z,0.70
2023-05-17T16:23:56.164Z,0.93
2023-05-17T16:26:24.606Z,0.70
2023-05-17T16:28:53.060Z,0.80
2023-05-17T16:31:21.803Z,0.80
2023-05-17T16:33:50.404Z,0.90
2023-05-17T16:36:22.672Z,0.93
2023-05-17T16:38:51.835Z,0.67
2023-05-17T16:41:20.223Z,1.00
2023-05-17T16:43:48.686Z,0.90
2023-05-17T16:46:19.101Z,0.90
2023-05-17T16:48:47.533Z,0.83
2023-05-17T16:51:15.899Z,0.70
2023-05-17T16:53:45.787Z,0.67
2023-05-17T16:56:14.169Z,0.70
2023-05-17T16:58:42.943Z,0.50
2023-05-17T17:01:11.952Z,0.80
2023-05-17T17:03:40.456Z,0.70
2023-05-17T17:06:09.040Z,0.67
2023-05-17T17:08:38.268Z,0.70
2023-05-17T17:11:11.352Z,1.10
2023-05-17T17:13:39.911Z,0.50
2023-05-17T17:16:08.303Z,0.70
2023-05-17T17:18:36.799Z,0.73
2023-05-17T17:21:07.819Z,0.60
2023-05-17T17:23:36.789Z,0.90
2023-05-17T17:26:05.278Z,0.70
2023-05-17T17:28:35.091Z,0.60
2023-05-17T17:31:03.542Z,0.60
2023-05-17T17:33:32.049Z,0.80
2023-05-17T17:36:00.498Z,0.63
2023-05-17T17:38:28.865Z,0.50
2023-05-17T17:40:57.332Z,0.70
2023-05-17T17:43:25.802Z,0.60
2023-05-17T17:45:55.576Z,0.87
2023-05-17T17:48:23.926Z,1.00
2023-05-17T17:50:52.433Z,1.10
2023-05-17T17:53:20.861Z,0.70
2023-05-17T17:55:49.317Z,0.93
2023-05-17T17:58:17.692Z,0.70
2023-05-17T18:00:46.122Z,0.80
2023-05-17T18:03:16.883Z,0.70
2023-05-17T18:05:45.344Z,1.00
2023-05-17T18:08:13.872Z,1.30
2023-05-17T18:10:42.258Z,0.60
2023-05-17T18:13:10.692Z,0.80
2023-05-17T18:15:39.226Z,1.03
2023-05-17T18:18:07.779Z,0.80
2023-05-17T18:20:37.773Z,0.87
2023-05-17T18:23:06.137Z,0.60
2023-05-17T18:25:36.758Z,1.00
2023-05-17T18:28:06.807Z,0.80
2023-05-17T18:30:37.328Z,0.60
2023-05-17T18:33:07.151Z,0.80
2023-05-17T18:35:37.338Z,0.73
2023-05-17T18:38:05.851Z,0.83
2023-05-17T18:40:34.280Z,1.17
2023-05-17T18:43:02.657Z,0.80
2023-05-17T18:45:32.029Z,0.90
2023-05-17T18:48:00.543Z,0.80
2023-05-17T18:50:29.168Z,0.73
2023-05-17T18:53:00.068Z,0.70
2023-05-17T18:55:28.569Z,1.13
2023-05-17T18:57:57.028Z,0.80
2023-05-17T19:00:25.512Z,0.90
2023-05-17T19:02:54.874Z,0.83
2023-05-17T19:05:23.452Z,0.90
2023-05-17T19:07:51.846Z,0.87
2023-05-17T19:10:22.346Z,0.90
2023-05-17T19:12:50.759Z,1.00
2023-05-17T19:15:19.377Z,0.73
2023-05-17T19:17:48.003Z,1.00
2023-05-17T19:20:16.756Z,1.03
2023-05-17T19:22:45.170Z,1.43
2023-05-17T19:25:16.128Z,0.83
2023-05-17T19:27:46.440Z,0.67
2023-05-17T19:30:14.904Z,0.90
2023-05-17T19:32:43.389Z,0.80
2023-05-17T19:35:12.152Z,0.80
2023-05-17T19:37:40.520Z,0.73
2023-05-17T19:40:10.120Z,1.07
2023-05-17T19:42:39.506Z,0.90
2023-05-17T19:45:11.204Z,1.00
2023-05-17T19:47:39.722Z,1.00
2023-05-17T19:50:09.076Z,1.20
2023-05-17T19:52:37.457Z,0.70
2023-05-17T19:55:06.450Z,1.17
2023-05-17T19:57:35.028Z,1.20
2023-05-17T20:00:04.398Z,1.00
2023-05-17T20:02:34.250Z,0.80
2023-05-17T20:05:03.849Z,1.00
2023-05-17T20:07:33.364Z,0.80
2023-05-17T20:10:01.861Z,1.10
2023-05-17T20:12:30.908Z,1.00
2023-05-17T20:14:59.363Z,1.20
2023-05-17T20:17:27.835Z,1.20
2023-05-17T20:19:57.582Z,1.10
2023-05-17T20:22:26.126Z,1.00
2023-05-17T20:24:55.812Z,1.10
2023-05-17T20:27:27.064Z,1.37
2023-05-17T20:29:55.574Z,1.07
2023-05-17T20:32:24.075Z,1.10
2023-05-17T20:34:52.481Z,1.10
2023-05-17T20:37:22.259Z,1.70
2023-05-17T20:39:51.477Z,1.00
2023-05-17T20:42:20.553Z,1.13
2023-05-17T20:44:49.261Z,1.10
2023-05-17T20:47:17.657Z,1.10
2023-05-17T20:49:46.069Z,1.20
2023-05-17T20:52:16.255Z,1.10
2023-05-17T20:54:47.697Z,1.20
2023-05-17T20:57:16.298Z,1.10
2023-05-17T20:59:45.475Z,1.50
2023-05-17T21:02:13.915Z,1.30
2023-05-17T21:04:42.342Z,1.00
2023-05-17T21:07:11.420Z,0.87
2023-05-17T21:09:39.821Z,1.10
2023-05-17T21:12:09.876Z,1.13
2023-05-17T21:14:38.349Z,1.03
2023-05-17T21:17:06.877Z,1.20
2023-05-17T21:19:35.267Z,1.30
2023-05-17T21:22:03.688Z,1.20
2023-05-17T21:24:32.063Z,1.20
2023-05-17T21:27:01.347Z,1.27
2023-05-17T21:29:31.134Z,1.27
2023-05-17T21:31:59.633Z,1.60
2023-05-17T21:34:28.003Z,1.20
2023-05-17T21:36:56.345Z,1.10
2023-05-17T21:39:24.712Z,1.20
2023-05-17T21:41:53.063Z,1.07
2023-05-17T21:44:21.521Z,1.20
2023-05-17T21:46:51.349Z,1.30
2023-05-17T21:49:19.782Z,1.20
2023-05-17T21:51:48.202Z,1.30
2023-05-17T21:54:17.340Z,1.10
2023-05-17T21:56:45.861Z,1.00
2023-05-17T21:59:14.692Z,1.03
2023-05-17T22:01:44.183Z,1.30
2023-05-17T22:04:14.584Z,1.20
2023-05-17T22:06:42.981Z,1.60
2023-05-17T22:09:12.204Z,1.00
2023-05-17T22:11:40.735Z,0.90
2023-05-17T22:14:09.314Z,1.10
2023-05-17T22:16:37.885Z,1.23
2023-05-17T22:19:07.222Z,1.60
2023-05-17T22:21:38.731Z,1.10
2023-05-17T22:24:09.295Z,1.40
2023-05-17T22:26:37.820Z,1.70
2023-05-17T22:29:06.926Z,1.00
2023-05-17T22:31:37.743Z,1.60
2023-05-17T22:34:06.873Z,1.30
2023-05-17T22:36:36.698Z,1.40
2023-05-17T22:39:05.450Z,1.47
2023-05-17T22:41:33.925Z,1.40
2023-05-17T22:44:02.404Z,1.40
2023-05-17T22:46:32.151Z,1.50
2023-05-17T22:49:01.747Z,1.50
2023-05-17T22:51:30.212Z,1.30
2023-05-17T22:54:00.036Z,1.60
2023-05-17T22:56:28.414Z,1.30
2023-05-17T22:58:56.927Z,1.20
2023-05-17T23:01:25.778Z,1.50
2023-05-17T23:03:54.520Z,1.50
2023-05-17T23:06:24.545Z,0.90
2023-05-17T23:08:53.973Z,2.20
2023-05-17T23:11:24.795Z,1.20
2023-05-17T23:13:53.209Z,1.20
2023-05-17T23:16:26.213Z,1.40
2023-05-17T23:18:54.907Z,1.23
2023-05-17T23:21:23.312Z,1.10
2023-05-17T23:23:53.724Z,1.20
2023-05-17T23:26:22.220Z,1.30
2023-05-17T23:28:53.774Z,1.50
2023-05-17T23:31:23.024Z,1.10
2023-05-17T23:33:51.826Z,1.57
2023-05-17T23:36:21.877Z,1.10
2023-05-17T23:38:51.365Z,1.20
2023-05-17T23:41:24.026Z,1.47
2023-05-17T23:43:53.863Z,1.37
2023-05-17T23:46:22.509Z,1.27
2023-05-17T23:48:51.362Z,1.40
2023-05-17T23:51:20.744Z,1.37
2023-05-17T23:53:49.995Z,1.20
2023-05-17T23:56:19.214Z,1.67
2023-05-17T23:58:47.937Z,1.40
